sensor_id;sensor_type;location;lat;lon;timestamp;temperature;humidity
17033;DHT22;63208;52.178;21.016;2024-01-30T00:00:52;2.20;99.90
17033;DHT22;63208;52.178;21.016;2024-01-30T00:03:19;2.20;99.90
17033;DHT22;63208;52.178;21.016;2024-01-30T00:05:47;2.10;99.90
17033;DHT22;63208;52.178;21.016;2024-01-30T00:08:13;2.20;99.90
17033;DHT22;63208;52.178;21.016;2024-01-30T00:10:40;2.20;99.90
17033;DHT22;63208;52.178;21.016;2024-01-30T00:13:07;2.20;99.90
17033;DHT22;63208;52.178;21.016;2024-01-30T00:15:34;3.10;99.90
17033;DHT22;63208;52.178;21.016;2024-01-30T00:18:01;2.20;99.90
17033;DHT22;63208;52.178;21.016;2024-01-30T00:20:27;2.20;99.90
17033;DHT22;63208;52.178;21.016;2024-01-30T00:22:55;2.30;99.90
17033;DHT22;63208;52.178;21.016;2024-01-30T00:25:21;2.20;99.90
17033;DHT22;63208;52.178;21.016;2024-01-30T00:27:48;2.30;99.90
17033;DHT22;63208;52.178;21.016;2024-01-30T00:30:14;2.20;99.90
17033;DHT22;63208;52.178;21.016;2024-01-30T00:32:41;2.10;99.90
17033;DHT22;63208;52.178;21.016;2024-01-30T00:35:08;2.30;99.90
17033;DHT22;63208;52.178;21.016;2024-01-30T00:37:36;2.20;99.90
17033;DHT22;63208;52.178;21.016;2024-01-30T00:40:04;2.30;99.90
17033;DHT22;63208;52.178;21.016;2024-01-30T00:42:32;2.20;99.90
17033;DHT22;63208;52.178;21.016;2024-01-30T00:44:58;2.20;99.90
17033;DHT22;63208;52.178;21.016;2024-01-30T00:47:25;2.30;99.90
17033;DHT22;63208;52.178;21.016;2024-01-30T00:49:52;2.30;99.90
17033;DHT22;63208;52.178;21.016;2024-01-30T00:52:19;2.30;99.90
17033;DHT22;63208;52.178;21.016;2024-01-30T00:54:45;2.30;99.90
17033;DHT22;63208;52.178;21.016;2024-01-30T00:57:13;2.30;99.90
17033;DHT22;63208;52.178;21.016;2024-01-30T00:59:40;2.40;99.90
17033;DHT22;63208;52.178;21.016;2024-01-30T01:02:07;2.30;99.90
17033;DHT22;63208;52.178;21.016;2024-01-30T01:04:33;2.20;99.90
17033;DHT22;63208;52.178;21.016;2024-01-30T01:07:00;2.20;99.90
17033;DHT22;63208;52.178;21.016;2024-01-30T01:09:27;2.20;99.90
17033;DHT22;63208;52.178;21.016;2024-01-30T01:11:53;2.20;99.90
17033;DHT22;63208;52.178;21.016;2024-01-30T01:14:22;2.20;99.90
17033;DHT22;63208;52.178;21.016;2024-01-30T01:16:48;2.20;99.90
17033;DHT22;63208;52.178;21.016;2024-01-30T01:19:15;2.30;99.90
17033;DHT22;63208;52.178;21.016;2024-01-30T01:21:42;2.20;99.90
17033;DHT22;63208;52.178;21.016;2024-01-30T01:24:08;2.30;99.90
17033;DHT22;63208;52.178;21.016;2024-01-30T01:26:35;2.40;99.90
17033;DHT22;63208;52.178;21.016;2024-01-30T01:29:02;2.30;99.90
17033;DHT22;63208;52.178;21.016;2024-01-30T01:31:36;2.20;99.90
17033;DHT22;63208;52.178;21.016;2024-01-30T01:34:08;2.30;99.90
17033;DHT22;63208;52.178;21.016;2024-01-30T01:36:35;2.20;99.90
17033;DHT22;63208;52.178;21.016;2024-01-30T01:39:02;2.20;99.90
17033;DHT22;63208;52.178;21.016;2024-01-30T01:41:29;2.20;99.90
17033;DHT22;63208;52.178;21.016;2024-01-30T01:43:56;2.20;99.90
17033;DHT22;63208;52.178;21.016;2024-01-30T01:46:23;2.30;99.90
17033;DHT22;63208;52.178;21.016;2024-01-30T01:48:51;2.20;99.90
17033;DHT22;63208;52.178;21.016;2024-01-30T01:51:18;2.10;99.90
17033;DHT22;63208;52.178;21.016;2024-01-30T01:53:44;2.10;99.90
17033;DHT22;63208;52.178;21.016;2024-01-30T01:56:11;2.20;99.90
17033;DHT22;63208;52.178;21.016;2024-01-30T01:58:38;2.10;99.90
17033;DHT22;63208;52.178;21.016;2024-01-30T02:01:05;2.20;99.90
17033;DHT22;63208;52.178;21.016;2024-01-30T02:03:32;2.20;99.90
17033;DHT22;63208;52.178;21.016;2024-01-30T02:06:00;2.10;99.90
17033;DHT22;63208;52.178;21.016;2024-01-30T02:08:27;2.10;99.90
17033;DHT22;63208;52.178;21.016;2024-01-30T02:10:54;2.20;99.90
17033;DHT22;63208;52.178;21.016;2024-01-30T02:13:21;2.10;99.90
17033;DHT22;63208;52.178;21.016;2024-01-30T02:15:48;2.10;99.90
17033;DHT22;63208;52.178;21.016;2024-01-30T02:18:15;2.20;99.90
17033;DHT22;63208;52.178;21.016;2024-01-30T02:20:42;2.10;99.90
17033;DHT22;63208;52.178;21.016;2024-01-30T02:23:11;2.20;99.90
17033;DHT22;63208;52.178;21.016;2024-01-30T02:25:39;2.20;99.90
17033;DHT22;63208;52.178;21.016;2024-01-30T02:28:09;2.10;99.90
17033;DHT22;63208;52.178;21.016;2024-01-30T02:30:36;2.20;99.90
17033;DHT22;63208;52.178;21.016;2024-01-30T02:33:03;2.20;99.90
17033;DHT22;63208;52.178;21.016;2024-01-30T02:35:29;2.20;99.90
17033;DHT22;63208;52.178;21.016;2024-01-30T02:37:56;2.10;99.90
17033;DHT22;63208;52.178;21.016;2024-01-30T02:40:24;2.10;99.90
17033;DHT22;63208;52.178;21.016;2024-01-30T02:42:51;2.10;99.90
17033;DHT22;63208;52.178;21.016;2024-01-30T02:45:18;2.10;99.90
17033;DHT22;63208;52.178;21.016;2024-01-30T02:47:45;2.10;99.90
17033;DHT22;63208;52.178;21.016;2024-01-30T02:50:12;2.10;99.90
17033;DHT22;63208;52.178;21.016;2024-01-30T02:52:40;2.10;99.90
17033;DHT22;63208;52.178;21.016;2024-01-30T02:55:09;2.10;99.90
17033;DHT22;63208;52.178;21.016;2024-01-30T02:57:37;2.20;99.90
17033;DHT22;63208;52.178;21.016;2024-01-30T03:00:04;2.10;99.90
17033;DHT22;63208;52.178;21.016;2024-01-30T03:02:31;2.10;99.90
17033;DHT22;63208;52.178;21.016;2024-01-30T03:04:58;2.10;99.90
17033;DHT22;63208;52.178;21.016;2024-01-30T03:07:25;2.10;99.90
17033;DHT22;63208;52.178;21.016;2024-01-30T03:09:52;2.00;99.90
17033;DHT22;63208;52.178;21.016;2024-01-30T03:12:20;2.00;99.90
17033;DHT22;63208;52.178;21.016;2024-01-30T03:14:49;2.00;99.90
17033;DHT22;63208;52.178;21.016;2024-01-30T03:17:15;2.00;99.90
17033;DHT22;63208;52.178;21.016;2024-01-30T03:19:42;2.00;99.90
17033;DHT22;63208;52.178;21.016;2024-01-30T03:22:09;1.90;99.90
17033;DHT22;63208;52.178;21.016;2024-01-30T03:24:35;1.90;99.90
17033;DHT22;63208;52.178;21.016;2024-01-30T03:27:02;1.90;99.90
17033;DHT22;63208;52.178;21.016;2024-01-30T03:29:29;1.90;99.90
17033;DHT22;63208;52.178;21.016;2024-01-30T03:31:57;1.90;99.90
17033;DHT22;63208;52.178;21.016;2024-01-30T03:34:24;1.90;99.90
17033;DHT22;63208;52.178;21.016;2024-01-30T03:36:51;1.80;99.90
17033;DHT22;63208;52.178;21.016;2024-01-30T03:39:17;1.80;99.90
17033;DHT22;63208;52.178;21.016;2024-01-30T03:41:44;1.80;99.90
17033;DHT22;63208;52.178;21.016;2024-01-30T03:44:11;1.70;99.90
17033;DHT22;63208;52.178;21.016;2024-01-30T03:46:37;1.70;99.90
17033;DHT22;63208;52.178;21.016;2024-01-30T03:49:06;1.70;99.90
17033;DHT22;63208;52.178;21.016;2024-01-30T03:51:32;1.70;99.90
17033;DHT22;63208;52.178;21.016;2024-01-30T03:53:59;1.70;99.90
17033;DHT22;63208;52.178;21.016;2024-01-30T03:56:26;1.60;99.90
17033;DHT22;63208;52.178;21.016;2024-01-30T03:58:52;1.60;99.90
17033;DHT22;63208;52.178;21.016;2024-01-30T04:01:19;1.60;99.90
17033;DHT22;63208;52.178;21.016;2024-01-30T04:03:46;1.60;99.90
17033;DHT22;63208;52.178;21.016;2024-01-30T04:06:14;1.50;99.90
17033;DHT22;63208;52.178;21.016;2024-01-30T04:08:40;1.50;99.90
17033;DHT22;63208;52.178;21.016;2024-01-30T04:11:07;1.50;99.90
17033;DHT22;63208;52.178;21.016;2024-01-30T04:13:34;1.50;99.90
17033;DHT22;63208;52.178;21.016;2024-01-30T04:16:01;1.50;99.90
17033;DHT22;63208;52.178;21.016;2024-01-30T04:18:28;0.50;99.90
17033;DHT22;63208;52.178;21.016;2024-01-30T04:20:55;1.50;99.90
17033;DHT22;63208;52.178;21.016;2024-01-30T04:23:23;1.50;99.90
17033;DHT22;63208;52.178;21.016;2024-01-30T04:25:49;1.60;99.90
17033;DHT22;63208;52.178;21.016;2024-01-30T04:28:16;1.60;99.90
17033;DHT22;63208;52.178;21.016;2024-01-30T04:30:43;1.50;99.90
17033;DHT22;63208;52.178;21.016;2024-01-30T04:33:10;1.50;99.90
17033;DHT22;63208;52.178;21.016;2024-01-30T04:35:36;1.60;99.90
17033;DHT22;63208;52.178;21.016;2024-01-30T04:38:03;1.60;99.90
17033;DHT22;63208;52.178;21.016;2024-01-30T04:40:31;1.60;99.90
17033;DHT22;63208;52.178;21.016;2024-01-30T04:42:58;1.60;99.90
17033;DHT22;63208;52.178;21.016;2024-01-30T04:45:25;1.70;99.90
17033;DHT22;63208;52.178;21.016;2024-01-30T04:47:52;1.60;99.90
17033;DHT22;63208;52.178;21.016;2024-01-30T04:50:18;1.50;99.90
17033;DHT22;63208;52.178;21.016;2024-01-30T04:52:45;1.60;99.90
17033;DHT22;63208;52.178;21.016;2024-01-30T04:55:12;1.50;99.90
17033;DHT22;63208;52.178;21.016;2024-01-30T04:57:40;1.50;99.90
17033;DHT22;63208;52.178;21.016;2024-01-30T05:00:07;1.50;99.90
17033;DHT22;63208;52.178;21.016;2024-01-30T05:02:34;1.50;99.90
17033;DHT22;63208;52.178;21.016;2024-01-30T05:05:01;1.50;99.90
17033;DHT22;63208;52.178;21.016;2024-01-30T05:07:28;1.60;99.90
17033;DHT22;63208;52.178;21.016;2024-01-30T05:09:54;1.60;99.90
17033;DHT22;63208;52.178;21.016;2024-01-30T05:12:21;1.60;99.90
17033;DHT22;63208;52.178;21.016;2024-01-30T05:14:49;1.60;99.90
17033;DHT22;63208;52.178;21.016;2024-01-30T05:17:16;1.60;99.90
17033;DHT22;63208;52.178;21.016;2024-01-30T05:19:43;1.60;99.90
17033;DHT22;63208;52.178;21.016;2024-01-30T05:22:10;1.60;99.90
17033;DHT22;63208;52.178;21.016;2024-01-30T05:24:40;1.60;99.90
17033;DHT22;63208;52.178;21.016;2024-01-30T05:27:07;1.60;99.90
17033;DHT22;63208;52.178;21.016;2024-01-30T05:29:34;1.60;99.90
17033;DHT22;63208;52.178;21.016;2024-01-30T05:32:02;1.60;99.90
17033;DHT22;63208;52.178;21.016;2024-01-30T05:34:29;1.60;99.90
17033;DHT22;63208;52.178;21.016;2024-01-30T05:36:55;1.60;99.90
17033;DHT22;63208;52.178;21.016;2024-01-30T05:39:22;1.70;99.90
17033;DHT22;63208;52.178;21.016;2024-01-30T05:41:49;1.70;99.90
17033;DHT22;63208;52.178;21.016;2024-01-30T05:44:15;1.70;99.90
17033;DHT22;63208;52.178;21.016;2024-01-30T05:46:42;1.70;99.90
17033;DHT22;63208;52.178;21.016;2024-01-30T05:49:10;1.60;99.90
17033;DHT22;63208;52.178;21.016;2024-01-30T05:51:37;1.70;99.90
17033;DHT22;63208;52.178;21.016;2024-01-30T05:54:04;1.70;99.90
17033;DHT22;63208;52.178;21.016;2024-01-30T05:56:31;1.70;99.90
17033;DHT22;63208;52.178;21.016;2024-01-30T05:58:57;1.70;99.90
17033;DHT22;63208;52.178;21.016;2024-01-30T06:01:24;1.70;99.90
17033;DHT22;63208;52.178;21.016;2024-01-30T06:03:51;1.60;99.90
17033;DHT22;63208;52.178;21.016;2024-01-30T06:06:19;1.70;99.90
17033;DHT22;63208;52.178;21.016;2024-01-30T06:08:45;1.70;99.90
17033;DHT22;63208;52.178;21.016;2024-01-30T06:11:12;1.60;99.90
17033;DHT22;63208;52.178;21.016;2024-01-30T06:13:39;1.60;99.90
17033;DHT22;63208;52.178;21.016;2024-01-30T06:16:08;1.60;99.90
17033;DHT22;63208;52.178;21.016;2024-01-30T06:18:35;1.60;99.90
17033;DHT22;63208;52.178;21.016;2024-01-30T06:21:02;1.60;99.90
17033;DHT22;63208;52.178;21.016;2024-01-30T06:23:30;1.50;99.90
17033;DHT22;63208;52.178;21.016;2024-01-30T06:25:57;1.60;99.90
17033;DHT22;63208;52.178;21.016;2024-01-30T06:28:23;1.60;99.90
17033;DHT22;63208;52.178;21.016;2024-01-30T06:30:50;1.60;99.90
17033;DHT22;63208;52.178;21.016;2024-01-30T06:33:17;1.60;99.90
17033;DHT22;63208;52.178;21.016;2024-01-30T06:35:44;1.60;99.90
17033;DHT22;63208;52.178;21.016;2024-01-30T06:38:11;1.60;99.90
17033;DHT22;63208;52.178;21.016;2024-01-30T06:40:40;1.60;99.90
17033;DHT22;63208;52.178;21.016;2024-01-30T06:43:06;1.60;99.90
17033;DHT22;63208;52.178;21.016;2024-01-30T06:45:34;1.60;99.90
17033;DHT22;63208;52.178;21.016;2024-01-30T06:48:01;1.50;99.90
17033;DHT22;63208;52.178;21.016;2024-01-30T06:50:27;1.70;99.90
17033;DHT22;63208;52.178;21.016;2024-01-30T06:52:54;1.60;99.90
17033;DHT22;63208;52.178;21.016;2024-01-30T06:55:21;1.60;99.90
17033;DHT22;63208;52.178;21.016;2024-01-30T06:57:49;1.70;99.90
17033;DHT22;63208;52.178;21.016;2024-01-30T07:00:16;1.60;99.90
17033;DHT22;63208;52.178;21.016;2024-01-30T07:02:44;1.70;99.90
17033;DHT22;63208;52.178;21.016;2024-01-30T07:05:11;1.70;99.90
17033;DHT22;63208;52.178;21.016;2024-01-30T07:07:38;1.60;99.90
17033;DHT22;63208;52.178;21.016;2024-01-30T07:10:06;1.70;99.90
17033;DHT22;63208;52.178;21.016;2024-01-30T07:12:32;1.70;99.90
17033;DHT22;63208;52.178;21.016;2024-01-30T07:15:00;1.70;99.90
17033;DHT22;63208;52.178;21.016;2024-01-30T07:17:28;1.60;99.90
17033;DHT22;63208;52.178;21.016;2024-01-30T07:19:55;1.60;99.90
17033;DHT22;63208;52.178;21.016;2024-01-30T07:22:22;1.70;99.90
17033;DHT22;63208;52.178;21.016;2024-01-30T07:24:49;1.70;99.90
17033;DHT22;63208;52.178;21.016;2024-01-30T07:27:17;1.70;99.90
17033;DHT22;63208;52.178;21.016;2024-01-30T07:29:44;3.70;99.90
17033;DHT22;63208;52.178;21.016;2024-01-30T07:32:12;1.80;99.90
17033;DHT22;63208;52.178;21.016;2024-01-30T07:34:39;2.30;99.90
17033;DHT22;63208;52.178;21.016;2024-01-30T07:37:05;1.80;99.90
17033;DHT22;63208;52.178;21.016;2024-01-30T07:39:33;1.90;99.90
17033;DHT22;63208;52.178;21.016;2024-01-30T07:42:00;1.90;99.90
17033;DHT22;63208;52.178;21.016;2024-01-30T07:44:27;2.00;99.90
17033;DHT22;63208;52.178;21.016;2024-01-30T07:46:53;2.10;99.90
17033;DHT22;63208;52.178;21.016;2024-01-30T07:49:22;2.10;99.90
17033;DHT22;63208;52.178;21.016;2024-01-30T07:51:49;2.20;99.90
17033;DHT22;63208;52.178;21.016;2024-01-30T07:54:16;2.10;99.90
17033;DHT22;63208;52.178;21.016;2024-01-30T07:56:42;2.30;99.90
17033;DHT22;63208;52.178;21.016;2024-01-30T07:59:09;2.30;99.90
17033;DHT22;63208;52.178;21.016;2024-01-30T08:01:36;2.30;99.90
17033;DHT22;63208;52.178;21.016;2024-01-30T08:04:03;2.40;99.90
17033;DHT22;63208;52.178;21.016;2024-01-30T08:06:31;2.40;99.90
17033;DHT22;63208;52.178;21.016;2024-01-30T08:08:58;2.50;99.90
17033;DHT22;63208;52.178;21.016;2024-01-30T08:11:24;2.70;99.90
17033;DHT22;63208;52.178;21.016;2024-01-30T08:13:52;2.70;99.90
17033;DHT22;63208;52.178;21.016;2024-01-30T08:16:19;2.80;99.90
17033;DHT22;63208;52.178;21.016;2024-01-30T08:18:46;2.90;99.90
17033;DHT22;63208;52.178;21.016;2024-01-30T08:21:12;2.90;99.90
17033;DHT22;63208;52.178;21.016;2024-01-30T08:23:42;3.00;99.90
17033;DHT22;63208;52.178;21.016;2024-01-30T08:26:09;3.00;99.90
17033;DHT22;63208;52.178;21.016;2024-01-30T08:28:35;3.00;99.90
17033;DHT22;63208;52.178;21.016;2024-01-30T08:31:02;3.10;99.90
17033;DHT22;63208;52.178;21.016;2024-01-30T08:33:29;3.10;99.90
17033;DHT22;63208;52.178;21.016;2024-01-30T08:35:55;3.10;99.90
17033;DHT22;63208;52.178;21.016;2024-01-30T08:38:22;3.20;99.90
17033;DHT22;63208;52.178;21.016;2024-01-30T08:40:50;3.30;99.90
17033;DHT22;63208;52.178;21.016;2024-01-30T08:43:17;3.30;99.90
17033;DHT22;63208;52.178;21.016;2024-01-30T08:45:44;3.40;99.90
17033;DHT22;63208;52.178;21.016;2024-01-30T08:48:11;3.40;99.90
17033;DHT22;63208;52.178;21.016;2024-01-30T08:50:37;3.50;99.90
17033;DHT22;63208;52.178;21.016;2024-01-30T08:53:04;3.60;99.90
17033;DHT22;63208;52.178;21.016;2024-01-30T08:55:31;3.60;99.90
17033;DHT22;63208;52.178;21.016;2024-01-30T08:57:59;3.70;99.90
17033;DHT22;63208;52.178;21.016;2024-01-30T09:00:26;3.80;99.90
17033;DHT22;63208;52.178;21.016;2024-01-30T09:02:53;3.90;99.90
17033;DHT22;63208;52.178;21.016;2024-01-30T09:05:19;3.90;99.90
17033;DHT22;63208;52.178;21.016;2024-01-30T09:07:46;4.00;99.90
17033;DHT22;63208;52.178;21.016;2024-01-30T09:10:13;4.10;99.90
17033;DHT22;63208;52.178;21.016;2024-01-30T09:12:40;4.20;99.90
17033;DHT22;63208;52.178;21.016;2024-01-30T09:15:08;4.20;99.90
17033;DHT22;63208;52.178;21.016;2024-01-30T09:17:35;4.30;99.90
17033;DHT22;63208;52.178;21.016;2024-01-30T09:20:02;4.40;99.90
17033;DHT22;63208;52.178;21.016;2024-01-30T09:22:29;4.40;99.90
17033;DHT22;63208;52.178;21.016;2024-01-30T09:24:56;4.60;99.90
17033;DHT22;63208;52.178;21.016;2024-01-30T09:27:23;4.60;99.90
17033;DHT22;63208;52.178;21.016;2024-01-30T09:29:49;4.70;99.90
17033;DHT22;63208;52.178;21.016;2024-01-30T09:32:17;4.90;99.90
17033;DHT22;63208;52.178;21.016;2024-01-30T09:34:44;4.90;99.90
17033;DHT22;63208;52.178;21.016;2024-01-30T09:37:11;4.90;99.90
17033;DHT22;63208;52.178;21.016;2024-01-30T09:39:40;5.10;99.90
17033;DHT22;63208;52.178;21.016;2024-01-30T09:42:09;5.30;99.90
17033;DHT22;63208;52.178;21.016;2024-01-30T09:44:38;5.20;99.90
17033;DHT22;63208;52.178;21.016;2024-01-30T09:47:07;5.20;99.90
17033;DHT22;63208;52.178;21.016;2024-01-30T09:49:35;5.40;99.90
17033;DHT22;63208;52.178;21.016;2024-01-30T09:52:02;5.50;99.90
17033;DHT22;63208;52.178;21.016;2024-01-30T09:54:30;5.50;99.90
17033;DHT22;63208;52.178;21.016;2024-01-30T09:56:56;5.60;99.90
17033;DHT22;63208;52.178;21.016;2024-01-30T09:59:23;5.70;99.90
17033;DHT22;63208;52.178;21.016;2024-01-30T10:01:50;5.70;99.90
17033;DHT22;63208;52.178;21.016;2024-01-30T10:04:17;5.80;99.90
17033;DHT22;63208;52.178;21.016;2024-01-30T10:06:45;5.90;99.90
17033;DHT22;63208;52.178;21.016;2024-01-30T10:09:12;5.80;99.90
17033;DHT22;63208;52.178;21.016;2024-01-30T10:11:39;5.90;99.90
17033;DHT22;63208;52.178;21.016;2024-01-30T10:14:06;5.90;99.90
17033;DHT22;63208;52.178;21.016;2024-01-30T10:16:34;5.90;99.90
17033;DHT22;63208;52.178;21.016;2024-01-30T10:18:59;6.00;99.90
17033;DHT22;63208;52.178;21.016;2024-01-30T10:21:26;6.10;99.90
17033;DHT22;63208;52.178;21.016;2024-01-30T10:23:54;6.20;99.90
17033;DHT22;63208;52.178;21.016;2024-01-30T10:26:21;6.20;99.90
17033;DHT22;63208;52.178;21.016;2024-01-30T10:28:48;6.20;99.90
17033;DHT22;63208;52.178;21.016;2024-01-30T10:31:16;6.30;99.90
17033;DHT22;63208;52.178;21.016;2024-01-30T10:33:43;6.30;99.90
17033;DHT22;63208;52.178;21.016;2024-01-30T10:36:10;6.30;99.90
17033;DHT22;63208;52.178;21.016;2024-01-30T10:38:39;6.30;99.90
17033;DHT22;63208;52.178;21.016;2024-01-30T10:41:09;6.40;99.90
17033;DHT22;63208;52.178;21.016;2024-01-30T10:43:40;6.40;99.90
17033;DHT22;63208;52.178;21.016;2024-01-30T10:46:10;6.50;99.90
17033;DHT22;63208;52.178;21.016;2024-01-30T10:48:39;6.50;99.90
17033;DHT22;63208;52.178;21.016;2024-01-30T10:51:10;6.50;99.90
17033;DHT22;63208;52.178;21.016;2024-01-30T10:53:38;6.60;99.90
17033;DHT22;63208;52.178;21.016;2024-01-30T10:56:05;6.70;99.90
17033;DHT22;63208;52.178;21.016;2024-01-30T10:58:34;6.70;99.90
17033;DHT22;63208;52.178;21.016;2024-01-30T11:01:03;6.70;99.90
17033;DHT22;63208;52.178;21.016;2024-01-30T11:03:30;6.70;99.90
17033;DHT22;63208;52.178;21.016;2024-01-30T11:05:59;6.70;99.90
17033;DHT22;63208;52.178;21.016;2024-01-30T11:08:26;6.70;99.90
17033;DHT22;63208;52.178;21.016;2024-01-30T11:10:55;6.90;99.90
17033;DHT22;63208;52.178;21.016;2024-01-30T11:13:21;7.00;99.90
17033;DHT22;63208;52.178;21.016;2024-01-30T11:15:49;7.00;99.90
17033;DHT22;63208;52.178;21.016;2024-01-30T11:18:22;7.00;99.90
17033;DHT22;63208;52.178;21.016;2024-01-30T11:20:49;7.00;99.90
17033;DHT22;63208;52.178;21.016;2024-01-30T11:23:16;7.10;99.90
17033;DHT22;63208;52.178;21.016;2024-01-30T11:25:43;7.20;99.90
17033;DHT22;63208;52.178;21.016;2024-01-30T11:28:12;7.20;99.90
17033;DHT22;63208;52.178;21.016;2024-01-30T11:30:39;7.20;99.20
17033;DHT22;63208;52.178;21.016;2024-01-30T11:33:08;7.30;99.40
17033;DHT22;63208;52.178;21.016;2024-01-30T11:35:37;7.20;98.90
17033;DHT22;63208;52.178;21.016;2024-01-30T11:38:06;7.30;99.10
17033;DHT22;63208;52.178;21.016;2024-01-30T11:40:34;7.30;99.20
17033;DHT22;63208;52.178;21.016;2024-01-30T11:43:01;7.40;99.40
17033;DHT22;63208;52.178;21.016;2024-01-30T11:45:30;7.50;98.80
17033;DHT22;63208;52.178;21.016;2024-01-30T11:47:57;7.60;98.20
17033;DHT22;63208;52.178;21.016;2024-01-30T11:50:26;7.60;98.50
17033;DHT22;63208;52.178;21.016;2024-01-30T11:52:53;7.80;98.00
17033;DHT22;63208;52.178;21.016;2024-01-30T11:55:20;7.80;97.60
17033;DHT22;63208;52.178;21.016;2024-01-30T11:57:47;7.90;98.10
17033;DHT22;63208;52.178;21.016;2024-01-30T12:00:14;8.00;97.10
17033;DHT22;63208;52.178;21.016;2024-01-30T12:02:41;8.20;96.90
17033;DHT22;63208;52.178;21.016;2024-01-30T12:05:08;8.30;96.40
17033;DHT22;63208;52.178;21.016;2024-01-30T12:07:37;8.50;96.10
17033;DHT22;63208;52.178;21.016;2024-01-30T12:10:04;8.40;95.80
17033;DHT22;63208;52.178;21.016;2024-01-30T12:12:33;8.20;95.80
17033;DHT22;63208;52.178;21.016;2024-01-30T12:15:00;8.20;96.10
17033;DHT22;63208;52.178;21.016;2024-01-30T12:17:27;8.10;96.10
17033;DHT22;63208;52.178;21.016;2024-01-30T12:20:02;8.00;95.70
17033;DHT22;63208;52.178;21.016;2024-01-30T12:22:29;7.90;95.80
17033;DHT22;63208;52.178;21.016;2024-01-30T12:24:57;7.90;95.50
17033;DHT22;63208;52.178;21.016;2024-01-30T12:27:23;7.90;96.00
17033;DHT22;63208;52.178;21.016;2024-01-30T12:29:55;7.90;95.60
17033;DHT22;63208;52.178;21.016;2024-01-30T12:32:22;7.80;95.70
17033;DHT22;63208;52.178;21.016;2024-01-30T12:34:49;7.80;95.70
17033;DHT22;63208;52.178;21.016;2024-01-30T12:37:15;7.80;95.80
17033;DHT22;63208;52.178;21.016;2024-01-30T12:39:47;7.80;95.90
17033;DHT22;63208;52.178;21.016;2024-01-30T12:42:15;7.90;95.80
17033;DHT22;63208;52.178;21.016;2024-01-30T12:44:42;7.90;95.70
17033;DHT22;63208;52.178;21.016;2024-01-30T12:47:09;7.90;95.70
17033;DHT22;63208;52.178;21.016;2024-01-30T12:49:36;7.90;95.80
17033;DHT22;63208;52.178;21.016;2024-01-30T12:52:03;7.90;95.40
17033;DHT22;63208;52.178;21.016;2024-01-30T12:54:30;7.90;95.20
17033;DHT22;63208;52.178;21.016;2024-01-30T12:56:57;7.90;95.10
17033;DHT22;63208;52.178;21.016;2024-01-30T12:59:25;7.90;95.10
17033;DHT22;63208;52.178;21.016;2024-01-30T13:01:52;7.90;95.20
17033;DHT22;63208;52.178;21.016;2024-01-30T13:04:18;7.90;95.10
17033;DHT22;63208;52.178;21.016;2024-01-30T13:06:45;7.90;95.10
17033;DHT22;63208;52.178;21.016;2024-01-30T13:09:13;7.90;95.10
17033;DHT22;63208;52.178;21.016;2024-01-30T13:11:39;7.90;95.50
17033;DHT22;63208;52.178;21.016;2024-01-30T13:14:06;7.90;94.80
17033;DHT22;63208;52.178;21.016;2024-01-30T13:16:34;7.90;94.80
17033;DHT22;63208;52.178;21.016;2024-01-30T13:19:01;7.90;94.80
17033;DHT22;63208;52.178;21.016;2024-01-30T13:21:28;8.00;94.70
17033;DHT22;63208;52.178;21.016;2024-01-30T13:23:55;8.10;94.80
17033;DHT22;63208;52.178;21.016;2024-01-30T13:26:22;8.30;93.90
17033;DHT22;63208;52.178;21.016;2024-01-30T13:28:49;8.50;93.50
17033;DHT22;63208;52.178;21.016;2024-01-30T13:31:15;8.40;93.30
17033;DHT22;63208;52.178;21.016;2024-01-30T13:33:43;8.30;93.50
17033;DHT22;63208;52.178;21.016;2024-01-30T13:36:10;8.40;93.30
17033;DHT22;63208;52.178;21.016;2024-01-30T13:38:37;8.50;92.70
17033;DHT22;63208;52.178;21.016;2024-01-30T13:41:04;8.70;92.50
17033;DHT22;63208;52.178;21.016;2024-01-30T13:43:31;8.90;91.90
17033;DHT22;63208;52.178;21.016;2024-01-30T13:45:58;9.20;91.50
17033;DHT22;63208;52.178;21.016;2024-01-30T13:48:25;9.20;91.30
17033;DHT22;63208;52.178;21.016;2024-01-30T13:50:53;9.40;90.70
17033;DHT22;63208;52.178;21.016;2024-01-30T13:53:20;9.70;89.80
17033;DHT22;63208;52.178;21.016;2024-01-30T13:55:46;9.80;89.20
17033;DHT22;63208;52.178;21.016;2024-01-30T13:58:13;9.70;88.50
17033;DHT22;63208;52.178;21.016;2024-01-30T14:00:40;9.80;88.90
17033;DHT22;63208;52.178;21.016;2024-01-30T14:03:07;10.20;87.50
17033;DHT22;63208;52.178;21.016;2024-01-30T14:05:33;10.90;85.10
17033;DHT22;63208;52.178;21.016;2024-01-30T14:08:02;11.80;80.60
17033;DHT22;63208;52.178;21.016;2024-01-30T14:10:29;12.50;74.50
17033;DHT22;63208;52.178;21.016;2024-01-30T14:12:55;12.20;74.20
17033;DHT22;63208;52.178;21.016;2024-01-30T14:15:23;11.90;73.50
17033;DHT22;63208;52.178;21.016;2024-01-30T14:17:49;11.80;72.40
17033;DHT22;63208;52.178;21.016;2024-01-30T14:20:16;11.50;74.00
17033;DHT22;63208;52.178;21.016;2024-01-30T14:22:43;11.50;73.20
17033;DHT22;63208;52.178;21.016;2024-01-30T14:25:11;12.10;72.60
17033;DHT22;63208;52.178;21.016;2024-01-30T14:27:38;12.60;67.90
17033;DHT22;63208;52.178;21.016;2024-01-30T14:30:05;12.30;66.70
17033;DHT22;63208;52.178;21.016;2024-01-30T14:32:33;13.00;64.60
17033;DHT22;63208;52.178;21.016;2024-01-30T14:35:00;13.70;61.20
17033;DHT22;63208;52.178;21.016;2024-01-30T14:37:27;13.70;59.00
17033;DHT22;63208;52.178;21.016;2024-01-30T14:39:55;13.00;59.10
17033;DHT22;63208;52.178;21.016;2024-01-30T14:42:23;12.20;60.80
17033;DHT22;63208;52.178;21.016;2024-01-30T14:44:50;11.10;63.90
17033;DHT22;63208;52.178;21.016;2024-01-30T14:47:16;10.40;68.20
17033;DHT22;63208;52.178;21.016;2024-01-30T14:49:43;10.00;71.10
17033;DHT22;63208;52.178;21.016;2024-01-30T14:52:10;9.50;73.30
17033;DHT22;63208;52.178;21.016;2024-01-30T14:54:37;9.60;73.70
17033;DHT22;63208;52.178;21.016;2024-01-30T14:57:04;9.00;75.60
17033;DHT22;63208;52.178;21.016;2024-01-30T14:59:32;8.70;77.60
17033;DHT22;63208;52.178;21.016;2024-01-30T15:01:59;8.30;79.50
17033;DHT22;63208;52.178;21.016;2024-01-30T15:04:26;8.30;80.20
17033;DHT22;63208;52.178;21.016;2024-01-30T15:06:53;8.20;81.50
17033;DHT22;63208;52.178;21.016;2024-01-30T15:09:19;7.90;83.90
17033;DHT22;63208;52.178;21.016;2024-01-30T15:11:47;7.80;85.40
17033;DHT22;63208;52.178;21.016;2024-01-30T15:14:14;7.80;85.40
17033;DHT22;63208;52.178;21.016;2024-01-30T15:16:42;7.60;86.90
17033;DHT22;63208;52.178;21.016;2024-01-30T15:19:09;7.50;87.80
17033;DHT22;63208;52.178;21.016;2024-01-30T15:21:36;7.50;88.00
17033;DHT22;63208;52.178;21.016;2024-01-30T15:24:02;7.40;89.00
17033;DHT22;63208;52.178;21.016;2024-01-30T15:26:29;7.30;89.80
17033;DHT22;63208;52.178;21.016;2024-01-30T15:31:23;7.30;90.10